Terminal Aerodrome Forecast
Issued by NWS

Home | Current Version | Previous Version | Text Only | Print | Product List | Glossary On
Versions: 1 2 3 4 5 6 7 8 9 10 11 12 13 14 15 16
000
FTAK31 PAJN 080540
TAFAGY
TAF
PAGY 080540Z 0806/0906 00000KT 4SM -SN BR OVC027
      TEMPO 0806/0810 1 1/2SM -SN BKN015 OVC025
     FM081200 21005KT P6SM SCT025 BKN080
     FM081800 04005KT P6SM SCT015 BKN080
     FM082100 04003KT 4SM BR BKN015 OVC050
     FM090300 04005KT P6SM -RA FEW015 OVC050
      AMD LTD TO CLD VIS AND WIND=

USA.gov is the U.S. government's official web portal to all federal, state and local government web resources and services.